sensor_id;sensor_type;location;lat;lon;timestamp;pressure;altitude;pressure_sealevel;temperature;humidity
5952;BME280;3001;42.622;23.194;2023-11-22T00:02:08;90535.22;;;13.96;73.39
5952;BME280;3001;42.622;23.194;2023-11-22T00:04:35;90528.88;;;14.12;73.20
5952;BME280;3001;42.622;23.194;2023-11-22T00:07:01;90528.63;;;14.02;74.09
5952;BME280;3001;42.622;23.194;2023-11-22T00:09:28;90535.47;;;14.22;73.52
5952;BME280;3001;42.622;23.194;2023-11-22T00:11:55;90528.88;;;14.12;72.91
5952;BME280;3001;42.622;23.194;2023-11-22T00:14:23;90526.94;;;14.25;73.67
5952;BME280;3001;42.622;23.194;2023-11-22T00:16:49;90532.59;;;14.27;73.89
5952;BME280;3001;42.622;23.194;2023-11-22T00:19:16;90526.53;;;14.23;73.08
5952;BME280;3001;42.622;23.194;2023-11-22T00:21:47;90529.31;;;14.30;72.62
5952;BME280;3001;42.622;23.194;2023-11-22T00:24:14;90534.41;;;14.42;72.71
5952;BME280;3001;42.622;23.194;2023-11-22T00:26:40;90535.63;;;14.29;73.55
5952;BME280;3001;42.622;23.194;2023-11-22T00:29:07;90531.56;;;14.31;73.34
5952;BME280;3001;42.622;23.194;2023-11-22T00:31:36;90541.97;;;14.47;72.64
5952;BME280;3001;42.622;23.194;2023-11-22T00:34:02;90541.97;;;14.47;72.70
5952;BME280;3001;42.622;23.194;2023-11-22T00:36:29;90544.28;;;14.48;72.27
5952;BME280;3001;42.622;23.194;2023-11-22T00:38:56;90545.50;;;14.54;71.93
5952;BME280;3001;42.622;23.194;2023-11-22T00:41:22;90544.28;;;14.48;73.15
5952;BME280;3001;42.622;23.194;2023-11-22T00:43:48;90542.25;;;14.42;73.33
5952;BME280;3001;42.622;23.194;2023-11-22T00:46:15;90529.03;;;14.35;74.13
5952;BME280;3001;42.622;23.194;2023-11-22T00:48:43;90537.41;;;14.25;74.26
5952;BME280;3001;42.622;23.194;2023-11-22T00:51:09;90540.38;;;14.23;72.90
5952;BME280;3001;42.622;23.194;2023-11-22T00:53:36;90526.84;;;14.37;72.54
5952;BME280;3001;42.622;23.194;2023-11-22T00:56:04;90531.38;;;14.40;72.81
5952;BME280;3001;42.622;23.194;2023-11-22T00:58:31;90530.00;;;14.46;73.08
5952;BME280;3001;42.622;23.194;2023-11-22T01:00:58;90521.44;;;14.45;73.06
5952;BME280;3001;42.622;23.194;2023-11-22T01:03:25;90527.59;;;14.37;73.69
5952;BME280;3001;42.622;23.194;2023-11-22T01:05:53;90517.81;;;14.34;73.93
5952;BME280;3001;42.622;23.194;2023-11-22T01:08:20;90517.50;;;14.36;74.06
5952;BME280;3001;42.622;23.194;2023-11-22T01:10:47;90505.63;;;14.57;73.31
5952;BME280;3001;42.622;23.194;2023-11-22T01:13:14;90514.66;;;14.60;73.92
5952;BME280;3001;42.622;23.194;2023-11-22T01:15:41;90508.19;;;14.38;74.90
5952;BME280;3001;42.622;23.194;2023-11-22T01:18:08;90515.41;;;14.10;75.40
5952;BME280;3001;42.622;23.194;2023-11-22T01:20:35;90516.78;;;14.20;75.43
5952;BME280;3001;42.622;23.194;2023-11-22T01:23:03;90515.41;;;14.10;75.60
5952;BME280;3001;42.622;23.194;2023-11-22T01:25:29;90525.53;;;13.96;76.28
5952;BME280;3001;42.622;23.194;2023-11-22T01:27:56;90515.59;;;13.86;76.89
5952;BME280;3001;42.622;23.194;2023-11-22T01:30:23;90514.00;;;13.82;77.09
5952;BME280;3001;42.622;23.194;2023-11-22T01:32:50;90498.84;;;13.72;77.29
5952;BME280;3001;42.622;23.194;2023-11-22T01:35:16;90486.06;;;13.82;77.90
5952;BME280;3001;42.622;23.194;2023-11-22T01:37:43;90484.13;;;13.80;78.40
5952;BME280;3001;42.622;23.194;2023-11-22T01:40:12;90490.16;;;13.68;78.95
5952;BME280;3001;42.622;23.194;2023-11-22T01:42:38;90477.78;;;13.65;78.60
5952;BME280;3001;42.622;23.194;2023-11-22T01:45:06;90484.53;;;13.51;79.63
5952;BME280;3001;42.622;23.194;2023-11-22T01:47:34;90486.78;;;13.37;80.28
5952;BME280;3001;42.622;23.194;2023-11-22T01:50:02;90487.81;;;13.32;80.88
5952;BME280;3001;42.622;23.194;2023-11-22T01:52:30;90486.31;;;13.31;81.03
5952;BME280;3001;42.622;23.194;2023-11-22T01:54:57;90484.84;;;13.34;80.58
5952;BME280;3001;42.622;23.194;2023-11-22T01:57:26;90492.53;;;13.27;80.84
5952;BME280;3001;42.622;23.194;2023-11-22T01:59:53;90495.38;;;13.22;81.06
5952;BME280;3001;42.622;23.194;2023-11-22T02:02:19;90486.72;;;13.18;81.54
5952;BME280;3001;42.622;23.194;2023-11-22T02:04:46;90479.47;;;13.11;82.18
5952;BME280;3001;42.622;23.194;2023-11-22T02:07:13;90476.50;;;12.97;81.72
5952;BME280;3001;42.622;23.194;2023-11-22T02:09:39;90470.88;;;12.83;81.03
5952;BME280;3001;42.622;23.194;2023-11-22T02:12:07;90466.47;;;12.72;82.51
5952;BME280;3001;42.622;23.194;2023-11-22T02:14:35;90465.97;;;12.66;82.47
5952;BME280;3001;42.622;23.194;2023-11-22T02:17:03;90464.59;;;12.57;83.35
5952;BME280;3001;42.622;23.194;2023-11-22T02:19:30;90474.13;;;12.53;84.52
5952;BME280;3001;42.622;23.194;2023-11-22T02:21:56;90470.22;;;12.59;84.49
5952;BME280;3001;42.622;23.194;2023-11-22T02:24:25;90466.28;;;12.65;84.26
5952;BME280;3001;42.622;23.194;2023-11-22T02:26:53;90472.25;;;12.65;84.39
5952;BME280;3001;42.622;23.194;2023-11-22T02:29:19;90486.31;;;12.49;85.14
5952;BME280;3001;42.622;23.194;2023-11-22T02:31:47;90477.56;;;12.69;84.15
5952;BME280;3001;42.622;23.194;2023-11-22T02:34:14;90468.00;;;12.73;82.77
5952;BME280;3001;42.622;23.194;2023-11-22T02:36:41;90470.16;;;12.71;83.28
5952;BME280;3001;42.622;23.194;2023-11-22T02:39:09;90462.69;;;12.69;83.54
5952;BME280;3001;42.622;23.194;2023-11-22T02:41:37;90472.25;;;12.65;84.36
5952;BME280;3001;42.622;23.194;2023-11-22T02:44:04;90469.22;;;12.63;84.74
5952;BME280;3001;42.622;23.194;2023-11-22T02:46:32;90473.41;;;12.52;85.00
5952;BME280;3001;42.622;23.194;2023-11-22T02:48:59;90458.00;;;12.47;85.06
5952;BME280;3001;42.622;23.194;2023-11-22T02:51:25;90462.19;;;12.24;85.14
5952;BME280;3001;42.622;23.194;2023-11-22T02:53:53;90456.63;;;12.38;86.32
5952;BME280;3001;42.622;23.194;2023-11-22T02:56:20;90458.16;;;12.39;86.69
5952;BME280;3001;42.622;23.194;2023-11-22T02:58:48;90464.34;;;12.34;85.94
5952;BME280;3001;42.622;23.194;2023-11-22T03:01:16;90466.03;;;12.42;85.67
5952;BME280;3001;42.622;23.194;2023-11-22T03:03:43;90464.22;;;12.43;85.10
5952;BME280;3001;42.622;23.194;2023-11-22T03:06:09;90472.50;;;12.21;85.96
5952;BME280;3001;42.622;23.194;2023-11-22T03:08:36;90464.47;;;12.14;86.63
5952;BME280;3001;42.622;23.194;2023-11-22T03:11:03;90470.47;;;12.14;87.06
5952;BME280;3001;42.622;23.194;2023-11-22T03:13:29;90473.63;;;12.08;87.32
5952;BME280;3001;42.622;23.194;2023-11-22T03:15:58;90477.41;;;12.10;87.69
5952;BME280;3001;42.622;23.194;2023-11-22T03:18:24;90489.66;;;12.10;87.72
5952;BME280;3001;42.622;23.194;2023-11-22T03:20:51;90481.78;;;12.07;88.95
5952;BME280;3001;42.622;23.194;2023-11-22T03:23:20;90481.22;;;12.01;88.75
5952;BME280;3001;42.622;23.194;2023-11-22T03:25:46;90487.38;;;12.20;87.93
5952;BME280;3001;42.622;23.194;2023-11-22T03:28:13;90486.28;;;12.21;89.22
5952;BME280;3001;42.622;23.194;2023-11-22T03:30:40;90470.88;;;12.28;87.40
5952;BME280;3001;42.622;23.194;2023-11-22T03:33:08;90476.59;;;12.34;87.68
5952;BME280;3001;42.622;23.194;2023-11-22T03:35:35;90486.16;;;12.30;88.12
5952;BME280;3001;42.622;23.194;2023-11-22T03:38:02;90472.03;;;12.31;86.95
5952;BME280;3001;42.622;23.194;2023-11-22T03:40:28;90478.56;;;12.25;87.43
5952;BME280;3001;42.622;23.194;2023-11-22T03:42:55;90470.75;;;12.25;87.39
5952;BME280;3001;42.622;23.194;2023-11-22T03:45:22;90461.97;;;12.29;86.65
5952;BME280;3001;42.622;23.194;2023-11-22T03:47:48;90472.69;;;12.28;86.91
5952;BME280;3001;42.622;23.194;2023-11-22T03:50:17;90462.63;;;12.26;87.15
5952;BME280;3001;42.622;23.194;2023-11-22T03:52:43;90474.28;;;12.44;86.36
5952;BME280;3001;42.622;23.194;2023-11-22T03:55:10;90458.88;;;12.39;86.69
5952;BME280;3001;42.622;23.194;2023-11-22T03:57:37;90471.84;;;12.36;86.20
5952;BME280;3001;42.622;23.194;2023-11-22T04:00:04;90467.25;;;12.33;86.62
5952;BME280;3001;42.622;23.194;2023-11-22T04:02:32;90474.44;;;12.36;86.25
5952;BME280;3001;42.622;23.194;2023-11-22T04:04:58;90481.59;;;12.39;86.69
5952;BME280;3001;42.622;23.194;2023-11-22T04:07:26;90483.09;;;12.40;85.88
5952;BME280;3001;42.622;23.194;2023-11-22T04:09:54;90489.94;;;12.32;86.39
5952;BME280;3001;42.622;23.194;2023-11-22T04:12:21;90491.78;;;12.32;86.00
5952;BME280;3001;42.622;23.194;2023-11-22T04:14:47;90495.84;;;12.17;87.85
5952;BME280;3001;42.622;23.194;2023-11-22T04:17:15;90511.03;;;12.15;87.18
5952;BME280;3001;42.622;23.194;2023-11-22T04:19:41;90500.91;;;12.26;87.38
5952;BME280;3001;42.622;23.194;2023-11-22T04:22:08;90517.63;;;12.13;87.33
5952;BME280;3001;42.622;23.194;2023-11-22T04:24:37;90514.78;;;12.30;86.84
5952;BME280;3001;42.622;23.194;2023-11-22T04:27:04;90518.41;;;12.25;87.17
5952;BME280;3001;42.622;23.194;2023-11-22T04:29:31;90509.69;;;12.21;87.56
5952;BME280;3001;42.622;23.194;2023-11-22T04:31:58;90508.53;;;12.19;86.85
5952;BME280;3001;42.622;23.194;2023-11-22T04:34:24;90514.41;;;12.16;87.37
5952;BME280;3001;42.622;23.194;2023-11-22T04:36:51;90517.13;;;12.07;87.30
5952;BME280;3001;42.622;23.194;2023-11-22T04:39:18;90517.31;;;12.14;86.98
5952;BME280;3001;42.622;23.194;2023-11-22T04:41:45;90516.22;;;12.15;87.29
5952;BME280;3001;42.622;23.194;2023-11-22T04:44:11;90522.06;;;12.24;87.01
5952;BME280;3001;42.622;23.194;2023-11-22T04:46:38;90522.06;;;12.36;86.99
5952;BME280;3001;42.622;23.194;2023-11-22T04:49:05;90547.00;;;12.49;86.50
5952;BME280;3001;42.622;23.194;2023-11-22T04:51:32;90552.88;;;12.46;86.40
5952;BME280;3001;42.622;23.194;2023-11-22T04:53:59;90552.81;;;12.70;85.68
5952;BME280;3001;42.622;23.194;2023-11-22T04:56:26;90553.78;;;12.66;86.17
5952;BME280;3001;42.622;23.194;2023-11-22T04:58:54;90551.78;;;12.75;85.55
5952;BME280;3001;42.622;23.194;2023-11-22T05:01:21;90555.19;;;12.75;85.90
5952;BME280;3001;42.622;23.194;2023-11-22T05:03:48;90562.84;;;12.84;86.58
5952;BME280;3001;42.622;23.194;2023-11-22T05:06:15;90566.75;;;12.90;87.79
5952;BME280;3001;42.622;23.194;2023-11-22T05:08:42;90572.84;;;12.82;89.57
5952;BME280;3001;42.622;23.194;2023-11-22T05:11:09;90575.84;;;12.68;90.72
5952;BME280;3001;42.622;23.194;2023-11-22T05:13:35;90575.66;;;12.37;92.65
5952;BME280;3001;42.622;23.194;2023-11-22T05:16:04;90573.84;;;12.65;92.66
5952;BME280;3001;42.622;23.194;2023-11-22T05:18:30;90582.56;;;12.69;92.45
5952;BME280;3001;42.622;23.194;2023-11-22T05:20:57;90586.34;;;12.72;93.92
5952;BME280;3001;42.622;23.194;2023-11-22T05:23:24;90583.47;;;12.49;94.93
5952;BME280;3001;42.622;23.194;2023-11-22T05:25:50;90593.47;;;12.47;95.18
5952;BME280;3001;42.622;23.194;2023-11-22T05:28:17;90605.81;;;12.50;95.69
5952;BME280;3001;42.622;23.194;2023-11-22T05:30:43;90615.69;;;12.57;95.25
5952;BME280;3001;42.622;23.194;2023-11-22T05:33:12;90608.31;;;12.47;95.75
5952;BME280;3001;42.622;23.194;2023-11-22T05:35:38;90612.00;;;12.46;94.60
5952;BME280;3001;42.622;23.194;2023-11-22T05:38:06;90619.28;;;12.28;96.02
5952;BME280;3001;42.622;23.194;2023-11-22T05:40:34;90620.06;;;12.17;96.62
5952;BME280;3001;42.622;23.194;2023-11-22T05:43:00;90628.19;;;12.27;96.73
5952;BME280;3001;42.622;23.194;2023-11-22T05:45:27;90619.59;;;12.27;96.71
5952;BME280;3001;42.622;23.194;2023-11-22T05:47:54;90619.19;;;12.25;97.82
5952;BME280;3001;42.622;23.194;2023-11-22T05:50:22;90612.22;;;12.41;96.54
5952;BME280;3001;42.622;23.194;2023-11-22T05:52:48;90618.84;;;12.38;96.48
5952;BME280;3001;42.622;23.194;2023-11-22T05:55:15;90633.69;;;12.50;96.74
5952;BME280;3001;42.622;23.194;2023-11-22T05:57:43;90638.91;;;12.26;97.58
5952;BME280;3001;42.622;23.194;2023-11-22T06:00:11;90638.06;;;12.22;97.83
5952;BME280;3001;42.622;23.194;2023-11-22T06:02:39;90646.72;;;12.14;98.59
5952;BME280;3001;42.622;23.194;2023-11-22T06:05:07;90640.66;;;12.22;98.85
5952;BME280;3001;42.622;23.194;2023-11-22T06:07:36;90641.59;;;11.94;100.00
5952;BME280;3001;42.622;23.194;2023-11-22T06:10:03;90649.56;;;12.21;100.00
5952;BME280;3001;42.622;23.194;2023-11-22T06:12:29;90659.19;;;12.08;100.00
5952;BME280;3001;42.622;23.194;2023-11-22T06:14:56;90662.56;;;12.09;99.89
5952;BME280;3001;42.622;23.194;2023-11-22T06:17:23;90673.94;;;12.04;100.00
5952;BME280;3001;42.622;23.194;2023-11-22T06:19:49;90671.97;;;12.02;100.00
5952;BME280;3001;42.622;23.194;2023-11-22T06:22:16;90671.97;;;11.90;100.00
5952;BME280;3001;42.622;23.194;2023-11-22T06:24:46;90668.16;;;11.87;100.00
5952;BME280;3001;42.622;23.194;2023-11-22T06:27:13;90668.59;;;11.77;100.00
5952;BME280;3001;42.622;23.194;2023-11-22T06:29:40;90674.31;;;11.83;100.00
5952;BME280;3001;42.622;23.194;2023-11-22T06:32:08;90676.63;;;11.84;100.00
5952;BME280;3001;42.622;23.194;2023-11-22T06:34:35;90683.72;;;12.07;100.00
5952;BME280;3001;42.622;23.194;2023-11-22T06:37:02;90700.22;;;12.35;100.00
5952;BME280;3001;42.622;23.194;2023-11-22T06:39:29;90696.22;;;12.50;99.73
5952;BME280;3001;42.622;23.194;2023-11-22T06:41:58;90703.50;;;12.68;98.48
5952;BME280;3001;42.622;23.194;2023-11-22T06:44:24;90712.53;;;12.59;99.14
5952;BME280;3001;42.622;23.194;2023-11-22T06:46:51;90712.72;;;12.66;97.37
5952;BME280;3001;42.622;23.194;2023-11-22T06:49:19;90706.19;;;12.72;94.50
5952;BME280;3001;42.622;23.194;2023-11-22T06:51:46;90709.16;;;12.70;94.91
5952;BME280;3001;42.622;23.194;2023-11-22T06:54:12;90717.94;;;12.66;95.89
5952;BME280;3001;42.622;23.194;2023-11-22T06:56:39;90717.28;;;12.57;95.96
5952;BME280;3001;42.622;23.194;2023-11-22T06:59:07;90718.91;;;12.49;94.84
5952;BME280;3001;42.622;23.194;2023-11-22T07:01:34;90723.97;;;12.34;95.63
5952;BME280;3001;42.622;23.194;2023-11-22T07:04:01;90730.44;;;12.48;94.81
5952;BME280;3001;42.622;23.194;2023-11-22T07:06:29;90730.94;;;12.54;94.44
5952;BME280;3001;42.622;23.194;2023-11-22T07:08:56;90720.34;;;12.59;93.88
5952;BME280;3001;42.622;23.194;2023-11-22T07:11:23;90713.81;;;12.65;92.94
5952;BME280;3001;42.622;23.194;2023-11-22T07:13:51;90735.00;;;12.87;92.62
5952;BME280;3001;42.622;23.194;2023-11-22T07:16:20;90733.72;;;12.93;92.65
5952;BME280;3001;42.622;23.194;2023-11-22T07:18:46;90746.16;;;12.76;93.44
5952;BME280;3001;42.622;23.194;2023-11-22T07:21:13;90731.94;;;12.73;93.27
5952;BME280;3001;42.622;23.194;2023-11-22T07:23:40;90738.56;;;12.47;93.10
5952;BME280;3001;42.622;23.194;2023-11-22T07:26:07;90744.94;;;12.37;93.94
5952;BME280;3001;42.622;23.194;2023-11-22T07:28:33;90753.53;;;12.50;91.07
5952;BME280;3001;42.622;23.194;2023-11-22T07:31:01;90746.91;;;12.40;92.18
5952;BME280;3001;42.622;23.194;2023-11-22T07:33:29;90747.41;;;12.34;94.10
5952;BME280;3001;42.622;23.194;2023-11-22T07:35:56;90746.47;;;12.26;95.39
5952;BME280;3001;42.622;23.194;2023-11-22T07:38:24;90744.06;;;12.33;96.82
5952;BME280;3001;42.622;23.194;2023-11-22T07:40:50;90747.63;;;12.29;97.63
5952;BME280;3001;42.622;23.194;2023-11-22T07:43:17;90749.16;;;12.30;98.37
5952;BME280;3001;42.622;23.194;2023-11-22T07:45:44;90742.13;;;12.42;98.65
5952;BME280;3001;42.622;23.194;2023-11-22T07:48:12;90749.97;;;12.66;98.52
5952;BME280;3001;42.622;23.194;2023-11-22T07:50:40;90755.16;;;12.54;98.75
5952;BME280;3001;42.622;23.194;2023-11-22T07:53:09;90753.88;;;12.48;99.48
5952;BME280;3001;42.622;23.194;2023-11-22T07:55:37;90754.50;;;12.57;98.96
5952;BME280;3001;42.622;23.194;2023-11-22T07:58:03;90754.19;;;12.47;99.54
5952;BME280;3001;42.622;23.194;2023-11-22T08:00:32;90759.19;;;12.76;96.40
5952;BME280;3001;42.622;23.194;2023-11-22T08:02:59;90763.19;;;12.85;96.35
5952;BME280;3001;42.622;23.194;2023-11-22T08:05:28;90760.84;;;12.68;97.48
5952;BME280;3001;42.622;23.194;2023-11-22T08:07:56;90763.97;;;12.74;95.61
5952;BME280;3001;42.622;23.194;2023-11-22T08:10:23;90764.72;;;12.62;95.97
5952;BME280;3001;42.622;23.194;2023-11-22T08:12:50;90764.19;;;12.69;96.22
5952;BME280;3001;42.622;23.194;2023-11-22T08:15:17;90758.00;;;12.61;96.48
5952;BME280;3001;42.622;23.194;2023-11-22T08:17:44;90768.00;;;12.71;96.57
5952;BME280;3001;42.622;23.194;2023-11-22T08:20:11;90761.34;;;12.74;96.33
5952;BME280;3001;42.622;23.194;2023-11-22T08:22:42;90773.22;;;12.71;97.10
5952;BME280;3001;42.622;23.194;2023-11-22T08:25:12;90767.72;;;12.97;95.44
5952;BME280;3001;42.622;23.194;2023-11-22T08:27:39;90772.16;;;12.96;96.20
5952;BME280;3001;42.622;23.194;2023-11-22T08:30:07;90773.53;;;12.82;97.11
5952;BME280;3001;42.622;23.194;2023-11-22T08:32:41;90773.19;;;12.83;97.89
5952;BME280;3001;42.622;23.194;2023-11-22T08:35:09;90770.94;;;12.82;98.15
5952;BME280;3001;42.622;23.194;2023-11-22T08:37:36;90775.06;;;12.95;97.74
5952;BME280;3001;42.622;23.194;2023-11-22T08:40:06;90773.75;;;13.25;95.77
5952;BME280;3001;42.622;23.194;2023-11-22T08:42:34;90779.09;;;13.16;96.70
5952;BME280;3001;42.622;23.194;2023-11-22T08:45:02;90767.38;;;13.10;97.66
5952;BME280;3001;42.622;23.194;2023-11-22T08:47:29;90775.91;;;12.75;100.00
5952;BME280;3001;42.622;23.194;2023-11-22T08:49:56;90771.94;;;13.01;99.27
5952;BME280;3001;42.622;23.194;2023-11-22T08:52:23;90773.03;;;13.12;99.42
5952;BME280;3001;42.622;23.194;2023-11-22T08:54:50;90786.69;;;13.21;98.37
5952;BME280;3001;42.622;23.194;2023-11-22T08:57:17;90789.41;;;13.25;96.80
5952;BME280;3001;42.622;23.194;2023-11-22T08:59:45;90791.69;;;13.26;94.41
5952;BME280;3001;42.622;23.194;2023-11-22T09:02:13;90789.31;;;13.21;94.35
5952;BME280;3001;42.622;23.194;2023-11-22T09:04:40;90793.22;;;13.15;95.39
5952;BME280;3001;42.622;23.194;2023-11-22T09:07:07;90799.06;;;13.24;95.92
5952;BME280;3001;42.622;23.194;2023-11-22T09:09:35;90804.53;;;13.31;96.13
5952;BME280;3001;42.622;23.194;2023-11-22T09:12:03;90805.75;;;13.61;95.28
5952;BME280;3001;42.622;23.194;2023-11-22T09:14:30;90811.25;;;13.32;92.21
5952;BME280;3001;42.622;23.194;2023-11-22T09:16:58;90813.31;;;13.39;92.43
5952;BME280;3001;42.622;23.194;2023-11-22T09:19:26;90812.31;;;13.43;93.10
5952;BME280;3001;42.622;23.194;2023-11-22T09:21:53;90814.59;;;13.33;93.98
5952;BME280;3001;42.622;23.194;2023-11-22T09:24:20;90820.84;;;13.28;95.82
5952;BME280;3001;42.622;23.194;2023-11-22T09:26:47;90808.09;;;13.39;95.35
5952;BME280;3001;42.622;23.194;2023-11-22T09:29:13;90823.63;;;13.47;94.72
5952;BME280;3001;42.622;23.194;2023-11-22T09:31:40;90825.16;;;13.36;94.30
5952;BME280;3001;42.622;23.194;2023-11-22T09:34:09;90823.63;;;13.23;95.64
5952;BME280;3001;42.622;23.194;2023-11-22T09:36:36;90813.41;;;13.06;96.38
5952;BME280;3001;42.622;23.194;2023-11-22T09:39:03;90824.72;;;13.22;95.84
5952;BME280;3001;42.622;23.194;2023-11-22T09:41:34;90825.16;;;13.24;94.26
5952;BME280;3001;42.622;23.194;2023-11-22T09:44:00;90824.31;;;13.08;94.53
5952;BME280;3001;42.622;23.194;2023-11-22T09:46:29;90821.69;;;13.32;93.57
5952;BME280;3001;42.622;23.194;2023-11-22T09:49:00;90831.97;;;13.53;92.51
5952;BME280;3001;42.622;23.194;2023-11-22T09:51:32;90823.94;;;13.34;92.07
5952;BME280;3001;42.622;23.194;2023-11-22T09:54:04;90819.94;;;13.36;91.50
5952;BME280;3001;42.622;23.194;2023-11-22T09:56:33;90816.09;;;13.58;90.18
5952;BME280;3001;42.622;23.194;2023-11-22T09:59:03;90810.56;;;13.59;90.00
5952;BME280;3001;42.622;23.194;2023-11-22T10:01:32;90804.59;;;13.59;89.93
5952;BME280;3001;42.622;23.194;2023-11-22T10:04:02;90809.41;;;13.09;92.08
5952;BME280;3001;42.622;23.194;2023-11-22T10:06:32;90814.63;;;13.21;92.00
5952;BME280;3001;42.622;23.194;2023-11-22T10:08:59;90810.47;;;13.32;91.78
5952;BME280;3001;42.622;23.194;2023-11-22T10:11:26;90808.72;;;13.48;90.74
5952;BME280;3001;42.622;23.194;2023-11-22T10:13:54;90802.72;;;13.98;88.63
5952;BME280;3001;42.622;23.194;2023-11-22T10:16:22;90805.63;;;14.09;88.04
5952;BME280;3001;42.622;23.194;2023-11-22T10:18:49;90812.22;;;13.91;88.46
5952;BME280;3001;42.622;23.194;2023-11-22T10:21:21;90803.81;;;13.70;89.45
5952;BME280;3001;42.622;23.194;2023-11-22T10:23:50;90806.59;;;13.89;88.86
5952;BME280;3001;42.622;23.194;2023-11-22T10:26:18;90807.28;;;13.74;89.31
5952;BME280;3001;42.622;23.194;2023-11-22T10:28:45;90807.47;;;13.81;88.75
5952;BME280;3001;42.622;23.194;2023-11-22T10:31:11;90817.03;;;13.89;88.45
5952;BME280;3001;42.622;23.194;2023-11-22T10:33:42;90814.72;;;13.99;88.09
5952;BME280;3001;42.622;23.194;2023-11-22T10:36:10;90816.31;;;14.04;87.92
5952;BME280;3001;42.622;23.194;2023-11-22T10:38:37;90820.13;;;14.06;87.69
5952;BME280;3001;42.622;23.194;2023-11-22T10:41:06;90814.91;;;14.06;87.49
5952;BME280;3001;42.622;23.194;2023-11-22T10:43:34;90816.41;;;14.07;87.03
5952;BME280;3001;42.622;23.194;2023-11-22T10:46:02;90816.13;;;13.97;87.45
5952;BME280;3001;42.622;23.194;2023-11-22T10:48:31;90818.38;;;13.98;86.13
5952;BME280;3001;42.622;23.194;2023-11-22T10:51:00;90809.19;;;13.89;86.52
5952;BME280;3001;42.622;23.194;2023-11-22T10:53:32;90822.56;;;13.87;86.68
5952;BME280;3001;42.622;23.194;2023-11-22T10:56:07;90823.09;;;13.93;86.46
5952;BME280;3001;42.622;23.194;2023-11-22T10:58:40;90816.81;;;13.82;86.48
5952;BME280;3001;42.622;23.194;2023-11-22T11:01:09;90811.50;;;13.79;86.66
5952;BME280;3001;42.622;23.194;2023-11-22T11:03:37;90813.66;;;13.77;86.78
5952;BME280;3001;42.622;23.194;2023-11-22T11:06:08;90824.66;;;13.82;86.72
5952;BME280;3001;42.622;23.194;2023-11-22T11:08:38;90829.19;;;13.97;86.20
5952;BME280;3001;42.622;23.194;2023-11-22T11:11:07;90827.31;;;13.97;85.88
5952;BME280;3001;42.622;23.194;2023-11-22T11:13:34;90833.28;;;14.10;85.49
5952;BME280;3001;42.622;23.194;2023-11-22T11:16:01;90821.94;;;13.79;86.93
5952;BME280;3001;42.622;23.194;2023-11-22T11:18:28;90822.16;;;13.74;87.08
5952;BME280;3001;42.622;23.194;2023-11-22T11:20:56;90825.53;;;13.74;87.70
5952;BME280;3001;42.622;23.194;2023-11-22T11:23:25;90827.28;;;13.70;88.34
5952;BME280;3001;42.622;23.194;2023-11-22T11:25:54;90829.59;;;13.48;88.82
5952;BME280;3001;42.622;23.194;2023-11-22T11:28:24;90828.81;;;13.47;89.38
5952;BME280;3001;42.622;23.194;2023-11-22T11:30:52;90826.69;;;13.49;90.10
5952;BME280;3001;42.622;23.194;2023-11-22T11:33:26;90827.75;;;13.60;90.37
5952;BME280;3001;42.622;23.194;2023-11-22T11:35:56;90825.59;;;13.50;90.68
5952;BME280;3001;42.622;23.194;2023-11-22T11:38:30;90826.22;;;13.59;90.94
5952;BME280;3001;42.622;23.194;2023-11-22T11:41:06;90837.31;;;13.56;91.17
5952;BME280;3001;42.622;23.194;2023-11-22T11:43:43;90819.06;;;13.44;91.17
5952;BME280;3001;42.622;23.194;2023-11-22T11:46:11;90828.28;;;13.54;91.25
5952;BME280;3001;42.622;23.194;2023-11-22T11:48:42;90833.19;;;13.43;91.91
5952;BME280;3001;42.622;23.194;2023-11-22T11:51:10;90827.13;;;13.39;91.49
5952;BME280;3001;42.622;23.194;2023-11-22T11:53:39;90834.19;;;13.39;92.21
5952;BME280;3001;42.622;23.194;2023-11-22T11:56:07;90827.78;;;13.48;92.06
5952;BME280;3001;42.622;23.194;2023-11-22T11:58:34;90833.63;;;13.57;91.73
5952;BME280;3001;42.622;23.194;2023-11-22T12:01:02;90834.03;;;13.71;91.23
5952;BME280;3001;42.622;23.194;2023-11-22T12:03:29;90834.94;;;13.51;91.57
5952;BME280;3001;42.622;23.194;2023-11-22T12:05:55;90846.13;;;13.52;91.66
5952;BME280;3001;42.622;23.194;2023-11-22T12:08:22;90843.94;;;13.66;90.68
5952;BME280;3001;42.622;23.194;2023-11-22T12:10:49;90852.31;;;13.59;90.77
5952;BME280;3001;42.622;23.194;2023-11-22T12:13:20;90857.22;;;13.61;91.04
5952;BME280;3001;42.622;23.194;2023-11-22T12:15:47;90859.06;;;13.60;91.21
5952;BME280;3001;42.622;23.194;2023-11-22T12:18:15;90854.56;;;13.73;90.30
5952;BME280;3001;42.622;23.194;2023-11-22T12:20:54;90846.91;;;13.91;88.93
5952;BME280;3001;42.622;23.194;2023-11-22T12:23:21;90845.53;;;13.82;89.32
5952;BME280;3001;42.622;23.194;2023-11-22T12:25:48;90846.84;;;13.76;90.07
5952;BME280;3001;42.622;23.194;2023-11-22T12:28:16;90841.88;;;13.71;90.55
5952;BME280;3001;42.622;23.194;2023-11-22T12:30:43;90844.47;;;13.71;91.07
5952;BME280;3001;42.622;23.194;2023-11-22T12:33:10;90846.44;;;13.74;91.49
5952;BME280;3001;42.622;23.194;2023-11-22T12:35:39;90840.72;;;13.96;91.31
5952;BME280;3001;42.622;23.194;2023-11-22T12:38:06;90850.75;;;13.82;92.22
5952;BME280;3001;42.622;23.194;2023-11-22T12:40:33;90850.81;;;13.97;92.43
5952;BME280;3001;42.622;23.194;2023-11-22T12:43:00;90856.69;;;14.06;91.38
5952;BME280;3001;42.622;23.194;2023-11-22T12:45:30;90857.13;;;13.96;91.67
5952;BME280;3001;42.622;23.194;2023-11-22T12:47:59;90874.69;;;13.84;91.90
5952;BME280;3001;42.622;23.194;2023-11-22T12:50:29;90870.41;;;13.91;91.74
5952;BME280;3001;42.622;23.194;2023-11-22T12:52:57;90875.88;;;13.86;91.79
5952;BME280;3001;42.622;23.194;2023-11-22T12:55:24;90875.75;;;13.83;92.10
5952;BME280;3001;42.622;23.194;2023-11-22T12:57:57;90877.94;;;13.93;91.50
5952;BME280;3001;42.622;23.194;2023-11-22T13:00:27;90883.34;;;14.00;91.08
5952;BME280;3001;42.622;23.194;2023-11-22T13:02:55;90887.47;;;14.13;90.61
5952;BME280;3001;42.622;23.194;2023-11-22T13:05:21;90893.13;;;14.03;90.31
5952;BME280;3001;42.622;23.194;2023-11-22T13:07:48;90893.34;;;14.10;90.54
5952;BME280;3001;42.622;23.194;2023-11-22T13:10:18;90893.34;;;14.10;90.32
5952;BME280;3001;42.622;23.194;2023-11-22T13:12:50;90897.50;;;14.11;90.06